createdAt,value
2022-10-07T00:01:11.218Z,101546.41
2022-10-07T00:03:41.645Z,101539.72
2022-10-07T00:06:13.202Z,101536.72
2022-10-07T00:08:43.042Z,101541.91
2022-10-07T00:11:13.011Z,101526.03
2022-10-07T00:13:42.675Z,101528.03
2022-10-07T00:16:13.786Z,101523.22
2022-10-07T00:18:43.494Z,101519.09
2022-10-07T00:21:14.641Z,101518.19
2022-10-07T00:23:43.857Z,101512.91
2022-10-07T00:26:13.687Z,101515.78
2022-10-07T00:28:41.904Z,101516.19
2022-10-07T00:31:13.365Z,101511.47
2022-10-07T00:33:43.756Z,101511.19
2022-10-07T00:36:16.993Z,101506.63
2022-10-07T00:38:45.218Z,101504.00
2022-10-07T00:41:19.214Z,101501.41
2022-10-07T00:43:48.066Z,101507.88
2022-10-07T00:46:24.705Z,101494.22
2022-10-07T00:48:55.463Z,101495.72
2022-10-07T00:51:23.945Z,101492.44
2022-10-07T00:53:56.756Z,101495.63
2022-10-07T00:56:28.052Z,101493.53
2022-10-07T00:58:56.937Z,101497.31
2022-10-07T01:01:25.544Z,101490.53
2022-10-07T01:03:55.878Z,101491.34
2022-10-07T01:06:24.851Z,101491.34
2022-10-07T01:08:55.611Z,101490.53
2022-10-07T01:11:36.661Z,101484.66
2022-10-07T01:14:10.559Z,101485.97
2022-10-07T01:16:48.486Z,101483.94
2022-10-07T01:19:44.044Z,101485.00
2022-10-07T01:22:23.289Z,101490.66
2022-10-07T01:25:04.571Z,101486.91
2022-10-07T01:27:37.146Z,101482.81
2022-10-07T01:30:08.807Z,101486.91
2022-10-07T01:32:41.932Z,101486.19
2022-10-07T01:35:15.091Z,101490.63
2022-10-07T01:37:48.704Z,101488.34
2022-10-07T01:40:21.751Z,101498.50
2022-10-07T01:42:52.049Z,101496.81
2022-10-07T01:45:23.869Z,101490.34
2022-10-07T01:47:53.121Z,101490.03
2022-10-07T01:50:26.535Z,101490.84
2022-10-07T01:53:12.920Z,101494.78
2022-10-07T01:55:55.503Z,101492.00
2022-10-07T01:58:40.115Z,101491.84
2022-10-07T02:01:23.980Z,101486.56
2022-10-07T02:04:08.380Z,101492.84
2022-10-07T02:06:44.558Z,101484.75
2022-10-07T02:09:24.180Z,101481.34
2022-10-07T02:11:57.550Z,101483.75
2022-10-07T02:14:38.397Z,101478.84
2022-10-07T02:17:11.404Z,101486.13
2022-10-07T02:19:45.237Z,101485.00
2022-10-07T02:22:14.814Z,101486.41
2022-10-07T02:24:45.213Z,101484.09
2022-10-07T02:27:18.068Z,101484.31
2022-10-07T02:29:49.948Z,101495.56
2022-10-07T02:32:21.881Z,101494.63
2022-10-07T02:34:54.741Z,101483.34
2022-10-07T02:37:27.156Z,101487.50
2022-10-07T02:39:57.415Z,101486.94
2022-10-07T02:42:33.789Z,101480.75
2022-10-07T02:45:13.481Z,101480.84
2022-10-07T02:47:48.202Z,101486.34
2022-10-07T02:50:22.706Z,101483.66
2022-10-07T02:52:55.958Z,101488.16
2022-10-07T02:55:27.373Z,101488.16
2022-10-07T02:58:00.187Z,101482.19
2022-10-07T03:00:32.930Z,101479.22
2022-10-07T03:03:03.299Z,101486.28
2022-10-07T03:05:31.537Z,101485.56
2022-10-07T03:08:04.022Z,101488.16
2022-10-07T03:10:32.212Z,101498.41
2022-10-07T03:13:00.469Z,101485.56
2022-10-07T03:15:29.965Z,101497.19
2022-10-07T03:17:58.138Z,101496.75
2022-10-07T03:20:26.215Z,101495.25
2022-10-07T03:22:54.357Z,101487.25
2022-10-07T03:25:22.489Z,101488.63
2022-10-07T03:27:50.529Z,101493.44
2022-10-07T03:30:24.272Z,101491.47
2022-10-07T03:32:55.103Z,101482.53
2022-10-07T03:35:23.190Z,101487.81
2022-10-07T03:37:51.292Z,101480.75
2022-10-07T03:40:19.390Z,101489.03
2022-10-07T03:42:48.101Z,101493.53
2022-10-07T03:45:16.191Z,101492.38
2022-10-07T03:47:44.514Z,101485.97
2022-10-07T03:50:14.231Z,101488.16
2022-10-07T03:52:42.478Z,101483.34
2022-10-07T03:55:11.052Z,101487.06
2022-10-07T03:57:55.476Z,101479.97
2022-10-07T04:00:28.300Z,101485.56
2022-10-07T04:02:56.787Z,101486.03
2022-10-07T04:05:26.524Z,101481.38
2022-10-07T04:07:54.836Z,101492.66
2022-10-07T04:10:22.995Z,101481.63
2022-10-07T04:12:51.455Z,101474.53
2022-10-07T04:15:20.256Z,101481.53
2022-10-07T04:17:49.888Z,101487.31
2022-10-07T04:20:18.532Z,101479.94
2022-10-07T04:22:48.095Z,101477.38
2022-10-07T04:25:33.723Z,101479.16
2022-10-07T04:28:03.709Z,101477.13
2022-10-07T04:30:34.915Z,101477.91
2022-10-07T04:33:03.841Z,101485.00
2022-10-07T04:35:31.951Z,101486.59
2022-10-07T04:38:01.511Z,101485.81
2022-10-07T04:40:31.360Z,101488.53
2022-10-07T04:43:17.103Z,101485.13
2022-10-07T04:45:45.265Z,101482.31
2022-10-07T04:48:13.660Z,101480.19
2022-10-07T04:50:42.054Z,101486.66
2022-10-07T04:53:14.449Z,101479.53
2022-10-07T04:55:44.039Z,101490.13
2022-10-07T04:58:12.448Z,101494.91
2022-10-07T05:00:45.860Z,101490.66
2022-10-07T05:03:14.835Z,101488.22
2022-10-07T05:05:44.373Z,101495.53
2022-10-07T05:08:14.483Z,101493.88
2022-10-07T05:10:43.679Z,101503.13
2022-10-07T05:13:14.603Z,101500.84
2022-10-07T05:15:50.076Z,101505.84
2022-10-07T05:18:19.457Z,101510.19
2022-10-07T05:20:48.565Z,101508.72
2022-10-07T05:23:22.298Z,101510.13
2022-10-07T05:25:59.482Z,101515.72
2022-10-07T05:28:28.140Z,101526.88
2022-10-07T05:31:04.157Z,101519.22
2022-10-07T05:33:32.672Z,101515.75
2022-10-07T05:36:01.332Z,101523.69
2022-10-07T05:38:30.897Z,101519.88
2022-10-07T05:41:00.622Z,101520.81
2022-10-07T05:43:29.895Z,101515.19
2022-10-07T05:46:02.548Z,101523.84
2022-10-07T05:48:36.629Z,101532.44
2022-10-07T05:51:07.753Z,101531.16
2022-10-07T05:53:41.359Z,101526.78
2022-10-07T05:56:11.020Z,101528.41
2022-10-07T05:58:40.005Z,101525.22
2022-10-07T06:01:13.933Z,101525.22
2022-10-07T06:03:42.556Z,101521.91
2022-10-07T06:06:11.322Z,101523.31
2022-10-07T06:08:41.118Z,101517.91
2022-10-07T06:11:29.561Z,101520.31
2022-10-07T06:13:58.089Z,101534.56
2022-10-07T06:16:27.124Z,101525.00
2022-10-07T06:18:56.048Z,101515.16
2022-10-07T06:21:28.390Z,101514.47
2022-10-07T06:23:59.126Z,101520.44
2022-10-07T06:26:27.297Z,101522.34
2022-10-07T06:28:55.412Z,101525.94
2022-10-07T06:31:25.801Z,101527.25
2022-10-07T06:33:54.408Z,101532.16
2022-10-07T06:36:22.607Z,101532.38
2022-10-07T06:38:52.858Z,101532.38
2022-10-07T06:41:23.616Z,101540.13
2022-10-07T06:43:57.431Z,101536.09
2022-10-07T06:46:25.700Z,101542.75
2022-10-07T06:48:54.172Z,101543.50
2022-10-07T06:51:23.407Z,101544.19
2022-10-07T06:53:53.956Z,101532.66
2022-10-07T06:56:23.434Z,101539.09
2022-10-07T06:58:51.732Z,101534.84
2022-10-07T07:01:20.288Z,101531.25
2022-10-07T07:03:48.885Z,101534.28
2022-10-07T07:06:17.047Z,101541.03
2022-10-07T07:08:46.083Z,101547.88
2022-10-07T07:11:32.818Z,101537.81
2022-10-07T07:14:03.653Z,101541.50
2022-10-07T07:16:32.177Z,101532.34
2022-10-07T07:19:03.039Z,101539.31
2022-10-07T07:21:31.760Z,101522.88
2022-10-07T07:24:01.418Z,101529.09
2022-10-07T07:26:30.648Z,101529.69
2022-10-07T07:29:01.414Z,101532.44
2022-10-07T07:31:33.219Z,101531.03
2022-10-07T07:34:04.023Z,101524.22
2022-10-07T07:36:33.337Z,101530.16
2022-10-07T07:39:03.982Z,101529.66
2022-10-07T07:41:35.260Z,101522.22
2022-10-07T07:44:07.320Z,101515.25
2022-10-07T07:46:41.808Z,101510.97
2022-10-07T07:49:11.016Z,101517.41
2022-10-07T07:51:39.939Z,101515.53
2022-10-07T07:54:07.974Z,101511.03
2022-10-07T07:56:36.149Z,101523.91
2022-10-07T07:59:06.185Z,101508.66
2022-10-07T08:01:35.538Z,101510.75
2022-10-07T08:04:06.494Z,101516.28
2022-10-07T08:06:35.312Z,101505.72
2022-10-07T08:09:03.619Z,101508.09
2022-10-07T08:11:33.096Z,101513.00
2022-10-07T08:14:03.286Z,101507.44
2022-10-07T08:16:32.345Z,101510.34
2022-10-07T08:19:10.168Z,101502.53
2022-10-07T08:21:38.556Z,101500.28
2022-10-07T08:24:09.952Z,101503.88
2022-10-07T08:26:38.903Z,101499.13
2022-10-07T08:29:07.046Z,101505.19
2022-10-07T08:31:35.800Z,101500.28
2022-10-07T08:34:06.454Z,101497.91
2022-10-07T08:36:35.984Z,101491.59
2022-10-07T08:39:05.783Z,101488.81
2022-10-07T08:41:57.855Z,101491.31
2022-10-07T08:44:29.971Z,101501.28
2022-10-07T08:47:06.420Z,101488.88
2022-10-07T08:49:40.449Z,101486.47
2022-10-07T08:52:26.612Z,101481.97
2022-10-07T08:54:54.883Z,101482.91
2022-10-07T08:57:38.835Z,101484.44
2022-10-07T09:00:09.199Z,101481.66
2022-10-07T09:02:52.650Z,101478.03
2022-10-07T09:05:26.413Z,101486.53
2022-10-07T09:07:59.999Z,101481.88
2022-10-07T09:10:34.349Z,101472.94
2022-10-07T09:13:05.905Z,101471.09
2022-10-07T09:15:42.653Z,101471.97
2022-10-07T09:18:20.429Z,101470.44
2022-10-07T09:20:53.731Z,101480.16
2022-10-07T09:23:26.158Z,101475.91
2022-10-07T09:25:54.318Z,101468.13
2022-10-07T09:28:27.440Z,101470.13
2022-10-07T09:30:55.748Z,101461.63
2022-10-07T09:33:28.022Z,101455.94
2022-10-07T09:35:58.395Z,101451.88
2022-10-07T09:38:34.110Z,101449.63
2022-10-07T09:41:17.531Z,101448.28
2022-10-07T09:43:57.170Z,101442.72
2022-10-07T09:46:53.528Z,101450.06
2022-10-07T09:49:32.837Z,101445.66
2022-10-07T09:52:02.400Z,101439.31
2022-10-07T09:54:34.023Z,101431.03
2022-10-07T09:57:04.248Z,101432.16
2022-10-07T09:59:33.805Z,101431.06
2022-10-07T10:02:13.070Z,101426.72
2022-10-07T10:04:48.390Z,101426.53
2022-10-07T10:07:21.435Z,101424.47
2022-10-07T10:09:53.207Z,101419.13
2022-10-07T10:12:22.967Z,101426.50
2022-10-07T10:14:53.785Z,101416.75
2022-10-07T10:17:34.657Z,101406.66
2022-10-07T10:20:36.140Z,101416.00
2022-10-07T10:23:25.273Z,101407.59
2022-10-07T10:26:22.691Z,101407.38
2022-10-07T10:29:00.805Z,101400.22
2022-10-07T10:31:39.803Z,101393.22
2022-10-07T10:34:28.010Z,101397.53
2022-10-07T10:37:03.479Z,101395.47
2022-10-07T10:39:44.888Z,101383.78
2022-10-07T10:42:21.487Z,101378.69
2022-10-07T10:45:16.260Z,101375.06
2022-10-07T10:47:56.489Z,101374.34
2022-10-07T10:50:31.635Z,101371.69
2022-10-07T10:53:11.281Z,101364.72
2022-10-07T10:56:04.829Z,101363.53
2022-10-07T10:58:47.752Z,101359.47
2022-10-07T11:01:28.035Z,101365.34
2022-10-07T11:04:21.643Z,101358.66
2022-10-07T11:06:56.715Z,101364.31
2022-10-07T11:09:34.969Z,101353.38
2022-10-07T11:12:07.104Z,101353.13
2022-10-07T11:14:48.606Z,101353.44
2022-10-07T11:17:18.638Z,101356.97
2022-10-07T11:19:57.627Z,101353.81
2022-10-07T11:22:39.310Z,101352.88
2022-10-07T11:25:18.943Z,101338.84
2022-10-07T11:27:53.403Z,101354.69
2022-10-07T11:30:24.771Z,101348.03
2022-10-07T11:33:00.198Z,101343.59
2022-10-07T11:35:32.865Z,101338.84
2022-10-07T11:38:08.093Z,101334.31
2022-10-07T11:40:42.534Z,101340.56
2022-10-07T11:43:18.526Z,101331.38
2022-10-07T11:45:52.654Z,101342.59
2022-10-07T11:48:24.490Z,101339.31
2022-10-07T11:50:56.315Z,101343.84
2022-10-07T11:53:27.708Z,101328.19
2022-10-07T11:56:01.147Z,101332.50
2022-10-07T11:58:33.047Z,101331.38
2022-10-07T12:01:48.577Z,101328.53
2022-10-07T12:04:38.411Z,101326.72
2022-10-07T12:07:36.994Z,101319.94
2022-10-07T12:10:29.980Z,101319.63
2022-10-07T12:13:01.146Z,101316.22
2022-10-07T12:15:39.132Z,101320.53
2022-10-07T12:18:28.570Z,101312.00
2022-10-07T12:21:15.160Z,101307.59
2022-10-07T12:23:44.918Z,101305.13
2022-10-07T12:26:52.465Z,101304.00
2022-10-07T12:29:33.699Z,101304.91
2022-10-07T12:32:02.394Z,101304.25
2022-10-07T12:34:38.846Z,101306.94
2022-10-07T12:37:52.539Z,101305.47
2022-10-07T12:40:31.154Z,101303.31
2022-10-07T12:43:10.767Z,101300.38
2022-10-07T12:45:43.556Z,101295.16
2022-10-07T12:48:18.222Z,101295.50
2022-10-07T12:50:50.972Z,101294.50
2022-10-07T12:53:20.389Z,101297.69
2022-10-07T12:55:50.505Z,101289.63
2022-10-07T12:59:05.645Z,101284.41
2022-10-07T13:01:48.038Z,101287.94
2022-10-07T13:04:38.665Z,101288.81
2022-10-07T13:07:40.863Z,101280.00
2022-10-07T13:10:42.280Z,101274.13
2022-10-07T13:13:16.454Z,101253.97
2022-10-07T13:15:47.711Z,101263.91
2022-10-07T13:18:21.990Z,101265.94
2022-10-07T13:21:18.389Z,101253.84
2022-10-07T13:23:52.782Z,101256.44
2022-10-07T13:26:22.873Z,101259.38
2022-10-07T13:28:53.721Z,101266.38
2022-10-07T13:31:25.358Z,101264.34
2022-10-07T13:33:54.861Z,101258.69
2022-10-07T13:36:25.231Z,101261.06
2022-10-07T13:39:10.528Z,101257.53
2022-10-07T13:41:39.674Z,101253.34
2022-10-07T13:44:07.994Z,101254.03
2022-10-07T13:46:37.545Z,101259.25
2022-10-07T13:49:06.551Z,101255.06
2022-10-07T13:51:36.989Z,101256.22
2022-10-07T13:54:09.414Z,101243.78
2022-10-07T13:56:41.674Z,101244.94
2022-10-07T13:59:16.037Z,101243.09
2022-10-07T14:01:44.424Z,101251.69
2022-10-07T14:04:20.993Z,101244.91
2022-10-07T14:07:00.290Z,101243.91
2022-10-07T14:09:44.053Z,101249.78
2022-10-07T14:12:15.884Z,101248.78
2022-10-07T14:14:46.321Z,101244.50
2022-10-07T14:17:24.870Z,101245.63
2022-10-07T14:19:54.926Z,101253.00
2022-10-07T14:22:30.239Z,101249.34
2022-10-07T14:25:03.105Z,101240.53
2022-10-07T14:27:54.117Z,101243.78
2022-10-07T14:30:51.989Z,101249.56
2022-10-07T14:33:44.226Z,101241.91
2022-10-07T14:36:14.396Z,101256.00
2022-10-07T14:38:43.303Z,101253.63
2022-10-07T14:41:13.788Z,101258.94
2022-10-07T14:43:46.334Z,101254.41
2022-10-07T14:46:19.019Z,101250.97
2022-10-07T14:48:47.872Z,101256.13
2022-10-07T14:51:18.731Z,101257.47
2022-10-07T14:53:50.297Z,101262.88
2022-10-07T14:56:26.770Z,101268.03
2022-10-07T14:58:56.318Z,101258.19
2022-10-07T15:01:24.570Z,101262.56
2022-10-07T15:03:52.849Z,101257.03
2022-10-07T15:06:21.910Z,101258.56
2022-10-07T15:08:50.307Z,101263.41
2022-10-07T15:11:21.901Z,101260.34
2022-10-07T15:13:51.039Z,101264.38
2022-10-07T15:16:21.507Z,101266.84
2022-10-07T15:18:52.772Z,101265.13
2022-10-07T15:21:22.074Z,101270.91
2022-10-07T15:23:52.804Z,101262.19
2022-10-07T15:26:24.691Z,101262.03
2022-10-07T15:28:55.289Z,101273.25
2022-10-07T15:31:24.466Z,101275.47
2022-10-07T15:33:57.985Z,101261.06
2022-10-07T15:36:29.174Z,101266.34
2022-10-07T15:39:02.094Z,101264.44
2022-10-07T15:41:34.564Z,101266.59
2022-10-07T15:44:04.775Z,101271.84
2022-10-07T15:46:33.074Z,101264.38
2022-10-07T15:49:01.692Z,101267.41
2022-10-07T15:51:31.197Z,101277.03
2022-10-07T15:53:59.650Z,101265.91
2022-10-07T15:56:27.851Z,101275.66
2022-10-07T15:58:58.685Z,101275.00
2022-10-07T16:01:28.738Z,101278.84
2022-10-07T16:03:57.149Z,101280.28
2022-10-07T16:06:27.024Z,101278.53
2022-10-07T16:08:56.894Z,101269.78
2022-10-07T16:11:26.250Z,101283.91
2022-10-07T16:13:54.530Z,101275.66
2022-10-07T16:16:26.366Z,101279.78
2022-10-07T16:18:56.009Z,101284.09
2022-10-07T16:21:28.014Z,101286.78
2022-10-07T16:23:58.896Z,101284.25
2022-10-07T16:26:30.393Z,101278.97
2022-10-07T16:29:18.755Z,101279.63
2022-10-07T16:31:49.320Z,101279.94
2022-10-07T16:34:19.815Z,101284.56
2022-10-07T16:36:49.243Z,101279.28
2022-10-07T16:39:19.164Z,101288.69
2022-10-07T16:41:48.385Z,101294.91
2022-10-07T16:44:17.159Z,101287.91
2022-10-07T16:46:45.338Z,101290.59
2022-10-07T16:49:17.850Z,101280.13
2022-10-07T16:51:46.870Z,101281.56
2022-10-07T16:54:17.438Z,101275.84
2022-10-07T16:56:48.244Z,101276.47
2022-10-07T16:59:22.526Z,101283.16
2022-10-07T17:01:52.972Z,101279.81
2022-10-07T17:04:23.042Z,101276.31
2022-10-07T17:06:51.210Z,101276.16
2022-10-07T17:09:19.726Z,101279.63
2022-10-07T17:11:48.099Z,101281.09
2022-10-07T17:14:18.329Z,101280.75
2022-10-07T17:16:48.167Z,101278.84
2022-10-07T17:19:18.883Z,101279.66
2022-10-07T17:21:50.282Z,101276.63
2022-10-07T17:24:20.584Z,101275.81
2022-10-07T17:26:49.027Z,101274.72
2022-10-07T17:29:19.529Z,101266.91
2022-10-07T17:31:50.634Z,101264.22
2022-10-07T17:34:20.720Z,101274.84
2022-10-07T17:36:51.695Z,101265.34
2022-10-07T17:39:20.318Z,101270.59
2022-10-07T17:41:48.869Z,101261.84
2022-10-07T17:44:17.390Z,101262.94
2022-10-07T17:46:45.660Z,101266.63
2022-10-07T17:49:14.544Z,101256.44
2022-10-07T17:51:44.093Z,101258.03
2022-10-07T17:54:14.651Z,101257.72
2022-10-07T17:56:45.208Z,101256.59
2022-10-07T17:59:14.416Z,101255.34
2022-10-07T18:01:42.999Z,101249.78
2022-10-07T18:04:13.549Z,101251.38
2022-10-07T18:06:43.415Z,101243.28
2022-10-07T18:09:18.692Z,101251.19
2022-10-07T18:12:04.541Z,101249.63
2022-10-07T18:14:53.508Z,101252.00
2022-10-07T18:17:22.596Z,101254.69
2022-10-07T18:19:50.664Z,101261.34
2022-10-07T18:22:19.413Z,101253.75
2022-10-07T18:24:49.835Z,101251.38
2022-10-07T18:27:17.931Z,101259.16
2022-10-07T18:29:46.083Z,101257.06
2022-10-07T18:32:14.184Z,101256.75
2022-10-07T18:34:42.320Z,101246.09
2022-10-07T18:37:10.731Z,101246.91
2022-10-07T18:39:39.081Z,101231.97
2022-10-07T18:42:08.749Z,101241.34
2022-10-07T18:44:36.957Z,101241.50
2022-10-07T18:47:05.221Z,101240.06
2022-10-07T18:49:33.281Z,101239.13
2022-10-07T18:52:01.511Z,101235.78
2022-10-07T18:54:30.030Z,101239.59
2022-10-07T18:56:58.134Z,101238.00
2022-10-07T18:59:27.975Z,101235.78
2022-10-07T19:01:56.219Z,101233.22
2022-10-07T19:04:24.446Z,101233.25
2022-10-07T19:06:52.591Z,101235.31
2022-10-07T19:09:22.333Z,101235.31
2022-10-07T19:11:51.030Z,101232.94
2022-10-07T19:14:18.346Z,101232.63
2022-10-07T19:16:50.151Z,101230.88
2022-10-07T19:19:20.322Z,101244.84
2022-10-07T19:21:50.728Z,101233.56
2022-10-07T19:24:19.073Z,101232.91
2022-10-07T19:26:49.995Z,101235.63
2022-10-07T19:29:19.376Z,101231.78
2022-10-07T19:31:50.219Z,101232.28
2022-10-07T19:34:21.195Z,101222.13
2022-10-07T19:36:50.059Z,101229.72
2022-10-07T19:39:20.070Z,101229.25
2022-10-07T19:41:48.919Z,101227.66
2022-10-07T19:44:17.341Z,101230.22
2022-10-07T19:46:45.582Z,101228.63
2022-10-07T19:49:15.342Z,101226.88
2022-10-07T19:51:44.880Z,101230.53
2022-10-07T19:54:13.211Z,101224.50
2022-10-07T19:56:42.235Z,101223.69
2022-10-07T19:59:12.246Z,101223.19
2022-10-07T20:01:42.573Z,101219.88
2022-10-07T20:04:13.399Z,101216.06
2022-10-07T20:06:43.273Z,101211.94
2022-10-07T20:09:14.051Z,101205.44
2022-10-07T20:11:42.530Z,101211.16
2022-10-07T20:14:11.483Z,101209.06
2022-10-07T20:16:40.138Z,101203.50
2022-10-07T20:19:11.593Z,101205.75
2022-10-07T20:21:40.395Z,101201.13
2022-10-07T20:24:10.259Z,101210.00
2022-10-07T20:26:39.619Z,101203.03
2022-10-07T20:29:10.338Z,101202.41
2022-10-07T20:31:40.112Z,101204.63
2022-10-07T20:34:09.857Z,101198.13
2022-10-07T20:36:41.397Z,101203.03
2022-10-07T20:39:34.137Z,101198.13
2022-10-07T20:42:20.061Z,101201.59
2022-10-07T20:44:49.338Z,101205.13
2022-10-07T20:47:17.981Z,101195.09
2022-10-07T20:49:48.361Z,101203.34
2022-10-07T20:52:19.372Z,101199.34
2022-10-07T20:54:49.285Z,101198.53
2022-10-07T20:57:19.052Z,101206.97
2022-10-07T20:59:47.326Z,101195.97
2022-10-07T21:02:17.543Z,101192.66
2022-10-07T21:04:47.140Z,101194.53
2022-10-07T21:07:15.577Z,101195.25
2022-10-07T21:09:43.654Z,101198.09
2022-10-07T21:12:15.071Z,101188.25
2022-10-07T21:14:44.322Z,101192.34
2022-10-07T21:17:13.264Z,101187.94
2022-10-07T21:19:41.862Z,101186.66
2022-10-07T21:22:10.646Z,101180.09
2022-10-07T21:24:38.747Z,101177.41
2022-10-07T21:27:08.590Z,101172.00
2022-10-07T21:29:40.986Z,101167.41
2022-10-07T21:32:10.050Z,101169.50
2022-10-07T21:34:38.531Z,101175.34
2022-10-07T21:37:06.730Z,101168.81
2022-10-07T21:39:34.900Z,101166.47
2022-10-07T21:42:03.205Z,101181.22
2022-10-07T21:44:33.469Z,101164.84
2022-10-07T21:47:04.952Z,101164.53
2022-10-07T21:49:33.172Z,101165.97
2022-10-07T21:52:01.332Z,101165.47
2022-10-07T21:54:30.391Z,101155.31
2022-10-07T21:56:58.948Z,101152.91
2022-10-07T21:59:27.214Z,101142.75
2022-10-07T22:01:55.437Z,101143.88
2022-10-07T22:04:25.168Z,101141.97
2022-10-07T22:07:10.790Z,101139.28
2022-10-07T22:09:38.943Z,101140.25
2022-10-07T22:12:07.325Z,101143.88
2022-10-07T22:14:35.554Z,101139.75
2022-10-07T22:17:03.925Z,101133.38
2022-10-07T22:19:33.405Z,101138.78
2022-10-07T22:22:01.538Z,101133.84
2022-10-07T22:24:29.895Z,101131.47
2022-10-07T22:26:58.548Z,101128.78
2022-10-07T22:29:26.992Z,101123.38
2022-10-07T22:31:55.440Z,101125.91
2022-10-07T22:34:42.517Z,101118.63
2022-10-07T22:37:12.020Z,101116.72
2022-10-07T22:39:41.214Z,101128.44
2022-10-07T22:42:09.558Z,101114.94
2022-10-07T22:44:37.654Z,101134.78
2022-10-07T22:47:05.893Z,101121.91
2022-10-07T22:49:33.991Z,101122.88
2022-10-07T22:52:02.152Z,101117.97
2022-10-07T22:54:31.623Z,101125.09
2022-10-07T22:56:59.921Z,101122.06
2022-10-07T22:59:28.037Z,101112.38
2022-10-07T23:01:56.146Z,101111.75
2022-10-07T23:04:24.278Z,101102.09
2022-10-07T23:06:53.009Z,101111.25
2022-10-07T23:09:21.131Z,101117.44
2022-10-07T23:11:50.683Z,101109.97
2022-10-07T23:14:19.127Z,101120.28
2022-10-07T23:16:47.330Z,101103.13
2022-10-07T23:19:15.494Z,101114.06
2022-10-07T23:21:44.700Z,101112.16
2022-10-07T23:24:14.663Z,101100.28
2022-10-07T23:26:46.133Z,101101.56
2022-10-07T23:29:15.865Z,101110.13
2022-10-07T23:31:45.208Z,101108.16
2022-10-07T23:34:13.926Z,101106.59
2022-10-07T23:36:42.305Z,101104.56
2022-10-07T23:39:10.459Z,101106.63
2022-10-07T23:41:38.554Z,101099.97
2022-10-07T23:44:07.041Z,101102.78
2022-10-07T23:46:36.805Z,101100.09
2022-10-07T23:49:05.428Z,101095.97
2022-10-07T23:51:34.423Z,101092.50
2022-10-07T23:54:04.431Z,101097.09
2022-10-07T23:56:33.606Z,101093.91
2022-10-07T23:59:02.688Z,101100.59
